sensor_id;sensor_type;location;lat;lon;timestamp;pressure;altitude;pressure_sealevel;temperature;humidity
46682;BME280;34101;53.430;-2.224;2023-07-13T00:01:36;100821.48;;;16.40;74.66
46682;BME280;34101;53.430;-2.224;2023-07-13T00:04:04;100817.34;;;16.40;74.00
46682;BME280;34101;53.430;-2.224;2023-07-13T00:06:31;100816.62;;;16.33;74.47
46682;BME280;34101;53.430;-2.224;2023-07-13T00:08:59;100815.09;;;16.47;73.90
46682;BME280;34101;53.430;-2.224;2023-07-13T00:11:27;100811.18;;;16.37;74.10
46682;BME280;34101;53.430;-2.224;2023-07-13T00:13:55;100805.71;;;15.95;74.61
46682;BME280;34101;53.430;-2.224;2023-07-13T00:16:22;100807.34;;;16.14;74.21
46682;BME280;34101;53.430;-2.224;2023-07-13T00:18:50;100805.31;;;16.23;74.52
46682;BME280;34101;53.430;-2.224;2023-07-13T00:21:17;100804.68;;;16.04;73.66
46682;BME280;34101;53.430;-2.224;2023-07-13T00:23:45;100805.57;;;16.01;74.44
46682;BME280;34101;53.430;-2.224;2023-07-13T00:26:12;100808.95;;;16.18;73.95
46682;BME280;34101;53.430;-2.224;2023-07-13T00:28:40;100808.99;;;16.04;74.23
46682;BME280;34101;53.430;-2.224;2023-07-13T00:31:08;100812.36;;;15.87;74.46
46682;BME280;34101;53.430;-2.224;2023-07-13T00:33:37;100812.13;;;15.91;74.65
46682;BME280;34101;53.430;-2.224;2023-07-13T00:36:05;100810.71;;;15.95;74.52
46682;BME280;34101;53.430;-2.224;2023-07-13T00:38:32;100809.71;;;15.94;74.12
46682;BME280;34101;53.430;-2.224;2023-07-13T00:40:59;100812.70;;;15.92;74.17
46682;BME280;34101;53.430;-2.224;2023-07-13T00:43:28;100811.84;;;16.07;73.76
46682;BME280;34101;53.430;-2.224;2023-07-13T00:46:31;100810.22;;;16.18;74.33
46682;BME280;34101;53.430;-2.224;2023-07-13T00:49:01;100808.73;;;16.30;73.78
46682;BME280;34101;53.430;-2.224;2023-07-13T00:51:32;100813.17;;;16.37;73.83
46682;BME280;34101;53.430;-2.224;2023-07-13T00:54:05;100820.18;;;16.38;73.65
46682;BME280;34101;53.430;-2.224;2023-07-13T00:56:34;100824.87;;;16.38;74.30
46682;BME280;34101;53.430;-2.224;2023-07-13T00:59:03;100821.14;;;16.27;75.14
46682;BME280;34101;53.430;-2.224;2023-07-13T01:01:32;100819.61;;;16.36;74.94
46682;BME280;34101;53.430;-2.224;2023-07-13T01:03:59;100817.22;;;16.37;75.01
46682;BME280;34101;53.430;-2.224;2023-07-13T01:06:27;100817.94;;;16.41;75.30
46682;BME280;34101;53.430;-2.224;2023-07-13T01:08:56;100817.44;;;16.51;74.86
46682;BME280;34101;53.430;-2.224;2023-07-13T01:11:25;100818.00;;;16.47;75.05
46682;BME280;34101;53.430;-2.224;2023-07-13T01:13:54;100820.07;;;16.48;75.33
46682;BME280;34101;53.430;-2.224;2023-07-13T01:16:25;100818.09;;;16.49;75.49
46682;BME280;34101;53.430;-2.224;2023-07-13T01:18:53;100817.10;;;16.51;75.52
46682;BME280;34101;53.430;-2.224;2023-07-13T01:21:21;100815.62;;;16.51;75.14
46682;BME280;34101;53.430;-2.224;2023-07-13T01:23:48;100821.68;;;16.37;75.83
46682;BME280;34101;53.430;-2.224;2023-07-13T01:26:16;100822.03;;;16.36;76.16
46682;BME280;34101;53.430;-2.224;2023-07-13T01:28:44;100819.37;;;16.43;75.73
46682;BME280;34101;53.430;-2.224;2023-07-13T01:31:12;100822.98;;;16.30;76.07
46682;BME280;34101;53.430;-2.224;2023-07-13T01:33:41;100822.29;;;16.38;76.06
46682;BME280;34101;53.430;-2.224;2023-07-13T01:36:11;100820.70;;;16.34;76.29
46682;BME280;34101;53.430;-2.224;2023-07-13T01:38:38;100824.05;;;16.34;76.18
46682;BME280;34101;53.430;-2.224;2023-07-13T01:41:06;100824.02;;;16.31;76.43
46682;BME280;34101;53.430;-2.224;2023-07-13T01:43:33;100827.73;;;16.27;76.79
46682;BME280;34101;53.430;-2.224;2023-07-13T01:46:00;100828.50;;;16.15;76.95
46682;BME280;34101;53.430;-2.224;2023-07-13T01:48:28;100833.71;;;16.30;76.44
46682;BME280;34101;53.430;-2.224;2023-07-13T01:50:55;100837.34;;;16.34;76.34
46682;BME280;34101;53.430;-2.224;2023-07-13T01:53:23;100838.51;;;16.34;76.55
46682;BME280;34101;53.430;-2.224;2023-07-13T01:55:50;100839.92;;;16.31;75.79
46682;BME280;34101;53.430;-2.224;2023-07-13T01:58:18;100842.19;;;16.35;76.29
46682;BME280;34101;53.430;-2.224;2023-07-13T02:00:48;100842.62;;;16.38;76.05
46682;BME280;34101;53.430;-2.224;2023-07-13T02:03:15;100839.63;;;16.37;75.85
46682;BME280;34101;53.430;-2.224;2023-07-13T02:05:42;100840.90;;;16.30;76.18
46682;BME280;34101;53.430;-2.224;2023-07-13T02:08:10;100843.49;;;16.39;76.14
46682;BME280;34101;53.430;-2.224;2023-07-13T02:10:38;100838.77;;;16.27;76.12
46682;BME280;34101;53.430;-2.224;2023-07-13T02:13:06;100836.90;;;16.33;75.81
46682;BME280;34101;53.430;-2.224;2023-07-13T02:15:34;100839.41;;;16.46;75.32
46682;BME280;34101;53.430;-2.224;2023-07-13T02:18:01;100835.05;;;16.23;75.58
46682;BME280;34101;53.430;-2.224;2023-07-13T02:20:29;100837.96;;;15.96;76.64
46682;BME280;34101;53.430;-2.224;2023-07-13T02:22:56;100831.02;;;16.08;76.65
46682;BME280;34101;53.430;-2.224;2023-07-13T02:25:24;100830.39;;;16.22;75.95
46682;BME280;34101;53.430;-2.224;2023-07-13T02:27:51;100828.53;;;16.20;75.44
46682;BME280;34101;53.430;-2.224;2023-07-13T02:30:19;100826.03;;;16.10;76.26
46682;BME280;34101;53.430;-2.224;2023-07-13T02:32:46;100825.99;;;16.13;76.22
46682;BME280;34101;53.430;-2.224;2023-07-13T02:35:14;100828.65;;;16.24;75.82
46682;BME280;34101;53.430;-2.224;2023-07-13T02:37:42;100829.14;;;16.29;75.61
46682;BME280;34101;53.430;-2.224;2023-07-13T02:40:10;100826.52;;;16.25;75.21
46682;BME280;34101;53.430;-2.224;2023-07-13T02:42:38;100824.99;;;16.08;75.48
46682;BME280;34101;53.430;-2.224;2023-07-13T02:45:07;100828.10;;;15.97;76.32
46682;BME280;34101;53.430;-2.224;2023-07-13T02:47:36;100827.56;;;16.04;76.78
46682;BME280;34101;53.430;-2.224;2023-07-13T02:50:04;100824.56;;;16.12;76.14
46682;BME280;34101;53.430;-2.224;2023-07-13T02:52:33;100825.87;;;16.19;75.64
46682;BME280;34101;53.430;-2.224;2023-07-13T02:55:00;100830.87;;;16.18;75.20
46682;BME280;34101;53.430;-2.224;2023-07-13T02:57:28;100831.54;;;15.98;76.44
46682;BME280;34101;53.430;-2.224;2023-07-13T02:59:55;100825.20;;;16.15;76.11
46682;BME280;34101;53.430;-2.224;2023-07-13T03:02:22;100828.48;;;16.30;75.92
46682;BME280;34101;53.430;-2.224;2023-07-13T03:04:50;100826.93;;;16.37;75.27
46682;BME280;34101;53.430;-2.224;2023-07-13T03:07:17;100824.93;;;16.37;74.98
46682;BME280;34101;53.430;-2.224;2023-07-13T03:09:44;100822.50;;;16.36;74.90
46682;BME280;34101;53.430;-2.224;2023-07-13T03:12:12;100818.73;;;16.32;74.79
46682;BME280;34101;53.430;-2.224;2023-07-13T03:14:39;100818.44;;;16.30;74.97
46682;BME280;34101;53.430;-2.224;2023-07-13T03:17:07;100817.98;;;16.32;74.88
46682;BME280;34101;53.430;-2.224;2023-07-13T03:19:34;100821.29;;;16.30;74.89
46682;BME280;34101;53.430;-2.224;2023-07-13T03:22:01;100818.69;;;16.33;74.36
46682;BME280;34101;53.430;-2.224;2023-07-13T03:24:29;100817.29;;;16.22;75.12
46682;BME280;34101;53.430;-2.224;2023-07-13T03:26:56;100820.96;;;16.20;75.32
46682;BME280;34101;53.430;-2.224;2023-07-13T03:29:24;100818.37;;;16.00;75.18
46682;BME280;34101;53.430;-2.224;2023-07-13T03:31:51;100822.33;;;16.10;75.61
46682;BME280;34101;53.430;-2.224;2023-07-13T03:34:18;100825.98;;;15.94;74.98
46682;BME280;34101;53.430;-2.224;2023-07-13T03:36:46;100826.79;;;15.99;75.85
46682;BME280;34101;53.430;-2.224;2023-07-13T03:39:13;100823.99;;;16.13;75.16
46682;BME280;34101;53.430;-2.224;2023-07-13T03:41:41;100828.50;;;16.11;74.79
46682;BME280;34101;53.430;-2.224;2023-07-13T03:44:08;100830.60;;;16.01;75.28
46682;BME280;34101;53.430;-2.224;2023-07-13T03:46:35;100832.96;;;15.90;75.23
46682;BME280;34101;53.430;-2.224;2023-07-13T03:49:04;100835.28;;;15.78;76.31
46682;BME280;34101;53.430;-2.224;2023-07-13T03:51:32;100836.95;;;15.80;76.24
46682;BME280;34101;53.430;-2.224;2023-07-13T03:53:59;100836.15;;;15.82;75.54
46682;BME280;34101;53.430;-2.224;2023-07-13T03:56:27;100838.96;;;15.82;76.30
46682;BME280;34101;53.430;-2.224;2023-07-13T03:58:54;100840.17;;;15.81;75.80
46682;BME280;34101;53.430;-2.224;2023-07-13T04:01:23;100840.76;;;15.77;75.65
46682;BME280;34101;53.430;-2.224;2023-07-13T04:03:52;100841.35;;;15.60;76.47
46682;BME280;34101;53.430;-2.224;2023-07-13T04:06:22;100843.44;;;15.55;76.74
46682;BME280;34101;53.430;-2.224;2023-07-13T04:08:51;100843.76;;;15.41;77.18
46682;BME280;34101;53.430;-2.224;2023-07-13T04:11:22;100846.10;;;15.40;77.19
46682;BME280;34101;53.430;-2.224;2023-07-13T04:13:50;100842.93;;;15.40;76.76
46682;BME280;34101;53.430;-2.224;2023-07-13T04:16:19;100844.22;;;15.38;76.75
46682;BME280;34101;53.430;-2.224;2023-07-13T04:18:47;100848.92;;;15.20;77.40
46682;BME280;34101;53.430;-2.224;2023-07-13T04:21:15;100853.84;;;15.27;77.26
46682;BME280;34101;53.430;-2.224;2023-07-13T04:23:43;100858.63;;;15.21;77.24
46682;BME280;34101;53.430;-2.224;2023-07-13T04:26:10;100861.35;;;15.05;77.64
46682;BME280;34101;53.430;-2.224;2023-07-13T04:28:38;100862.37;;;15.15;78.03
46682;BME280;34101;53.430;-2.224;2023-07-13T04:31:05;100863.11;;;15.29;76.99
46682;BME280;34101;53.430;-2.224;2023-07-13T04:33:33;100867.07;;;15.32;77.09
46682;BME280;34101;53.430;-2.224;2023-07-13T04:36:00;100869.78;;;15.29;76.88
46682;BME280;34101;53.430;-2.224;2023-07-13T04:38:30;100873.35;;;15.31;77.07
46682;BME280;34101;53.430;-2.224;2023-07-13T04:41:00;100875.93;;;15.36;76.55
46682;BME280;34101;53.430;-2.224;2023-07-13T04:43:29;100877.09;;;15.47;76.83
46682;BME280;34101;53.430;-2.224;2023-07-13T04:45:57;100876.87;;;15.63;75.62
46682;BME280;34101;53.430;-2.224;2023-07-13T04:48:29;100873.81;;;15.48;75.98
46682;BME280;34101;53.430;-2.224;2023-07-13T04:50:58;100877.09;;;15.46;75.68
46682;BME280;34101;53.430;-2.224;2023-07-13T04:53:26;100876.36;;;15.49;76.29
46682;BME280;34101;53.430;-2.224;2023-07-13T04:55:55;100874.38;;;15.52;75.88
46682;BME280;34101;53.430;-2.224;2023-07-13T04:58:24;100878.30;;;15.32;76.02
46682;BME280;34101;53.430;-2.224;2023-07-13T05:00:52;100879.21;;;15.20;76.56
46682;BME280;34101;53.430;-2.224;2023-07-13T05:03:19;100882.52;;;15.05;76.98
46682;BME280;34101;53.430;-2.224;2023-07-13T05:05:55;100885.78;;;15.17;76.72
46682;BME280;34101;53.430;-2.224;2023-07-13T05:08:23;100885.55;;;15.18;76.75
46682;BME280;34101;53.430;-2.224;2023-07-13T05:10:51;100887.94;;;15.22;75.77
46682;BME280;34101;53.430;-2.224;2023-07-13T05:13:19;100887.44;;;15.15;76.78
46682;BME280;34101;53.430;-2.224;2023-07-13T05:15:55;100892.12;;;15.33;76.82
46682;BME280;34101;53.430;-2.224;2023-07-13T05:18:22;100892.10;;;15.17;76.25
46682;BME280;34101;53.430;-2.224;2023-07-13T05:20:57;100891.43;;;15.41;75.92
46682;BME280;34101;53.430;-2.224;2023-07-13T05:23:24;100893.15;;;15.13;76.75
46682;BME280;34101;53.430;-2.224;2023-07-13T05:25:52;100895.62;;;15.21;76.49
46682;BME280;34101;53.430;-2.224;2023-07-13T05:28:19;100899.19;;;15.20;76.17
46682;BME280;34101;53.430;-2.224;2023-07-13T05:30:47;100901.23;;;15.18;76.35
46682;BME280;34101;53.430;-2.224;2023-07-13T05:33:15;100910.18;;;15.24;76.20
46682;BME280;34101;53.430;-2.224;2023-07-13T05:35:43;100910.30;;;15.25;76.21
46682;BME280;34101;53.430;-2.224;2023-07-13T05:38:11;100910.76;;;15.16;76.00
46682;BME280;34101;53.430;-2.224;2023-07-13T05:40:38;100911.74;;;15.32;76.05
46682;BME280;34101;53.430;-2.224;2023-07-13T05:43:06;100917.46;;;15.23;76.02
46682;BME280;34101;53.430;-2.224;2023-07-13T05:45:34;100923.16;;;15.18;76.32
46682;BME280;34101;53.430;-2.224;2023-07-13T05:48:02;100922.91;;;15.23;75.81
46682;BME280;34101;53.430;-2.224;2023-07-13T05:50:29;100921.88;;;15.21;76.50
46682;BME280;34101;53.430;-2.224;2023-07-13T05:52:57;100923.75;;;15.36;75.76
46682;BME280;34101;53.430;-2.224;2023-07-13T05:55:24;100926.27;;;15.36;76.27
46682;BME280;34101;53.430;-2.224;2023-07-13T05:57:52;100931.73;;;15.44;76.06
46682;BME280;34101;53.430;-2.224;2023-07-13T06:00:19;100935.17;;;15.59;75.45
46682;BME280;34101;53.430;-2.224;2023-07-13T06:02:47;100937.81;;;15.69;74.86
46682;BME280;34101;53.430;-2.224;2023-07-13T06:05:15;100941.76;;;15.58;75.07
46682;BME280;34101;53.430;-2.224;2023-07-13T06:07:43;100939.02;;;15.62;75.36
46682;BME280;34101;53.430;-2.224;2023-07-13T06:10:10;100942.92;;;15.64;75.22
46682;BME280;34101;53.430;-2.224;2023-07-13T06:12:37;100943.54;;;15.78;74.92
46682;BME280;34101;53.430;-2.224;2023-07-13T06:15:06;100946.90;;;15.82;74.42
46682;BME280;34101;53.430;-2.224;2023-07-13T06:17:34;100950.37;;;15.76;75.34
46682;BME280;34101;53.430;-2.224;2023-07-13T06:20:03;100951.31;;;15.94;75.03
46682;BME280;34101;53.430;-2.224;2023-07-13T06:22:30;100954.57;;;15.81;74.49
46682;BME280;34101;53.430;-2.224;2023-07-13T06:24:58;100952.06;;;15.88;74.43
46682;BME280;34101;53.430;-2.224;2023-07-13T06:27:25;100954.25;;;16.14;74.23
46682;BME280;34101;53.430;-2.224;2023-07-13T06:29:53;100960.24;;;16.38;73.36
46682;BME280;34101;53.430;-2.224;2023-07-13T06:32:20;100959.28;;;16.49;72.97
46682;BME280;34101;53.430;-2.224;2023-07-13T06:34:48;100959.43;;;16.71;72.65
46682;BME280;34101;53.430;-2.224;2023-07-13T06:37:15;100960.13;;;16.50;72.73
46682;BME280;34101;53.430;-2.224;2023-07-13T06:39:43;100959.97;;;16.48;73.23
46682;BME280;34101;53.430;-2.224;2023-07-13T06:42:10;100960.62;;;16.38;72.71
46682;BME280;34101;53.430;-2.224;2023-07-13T06:44:37;100964.24;;;16.35;72.59
46682;BME280;34101;53.430;-2.224;2023-07-13T06:47:05;100965.17;;;16.46;72.76
46682;BME280;34101;53.430;-2.224;2023-07-13T06:49:33;100966.43;;;16.57;72.31
46682;BME280;34101;53.430;-2.224;2023-07-13T06:52:00;100963.68;;;16.84;71.95
46682;BME280;34101;53.430;-2.224;2023-07-13T06:54:28;100967.21;;;16.92;71.80
46682;BME280;34101;53.430;-2.224;2023-07-13T06:56:55;100968.67;;;17.00;71.46
46682;BME280;34101;53.430;-2.224;2023-07-13T06:59:23;100973.43;;;17.14;71.35
46682;BME280;34101;53.430;-2.224;2023-07-13T07:01:50;100977.13;;;17.35;70.44
46682;BME280;34101;53.430;-2.224;2023-07-13T07:04:18;100975.11;;;17.36;70.00
46682;BME280;34101;53.430;-2.224;2023-07-13T07:06:46;100981.41;;;17.39;70.09
46682;BME280;34101;53.430;-2.224;2023-07-13T07:09:13;100984.78;;;17.33;69.99
46682;BME280;34101;53.430;-2.224;2023-07-13T07:11:40;100984.93;;;17.36;69.84
46682;BME280;34101;53.430;-2.224;2023-07-13T07:14:08;100988.00;;;17.22;70.30
46682;BME280;34101;53.430;-2.224;2023-07-13T07:16:36;100990.00;;;17.33;69.33
46682;BME280;34101;53.430;-2.224;2023-07-13T07:19:04;100990.25;;;17.42;70.03
46682;BME280;34101;53.430;-2.224;2023-07-13T07:21:31;100990.33;;;17.70;68.83
46682;BME280;34101;53.430;-2.224;2023-07-13T07:23:59;100991.46;;;17.29;68.99
46682;BME280;34101;53.430;-2.224;2023-07-13T07:26:26;100990.90;;;17.28;68.12
46682;BME280;34101;53.430;-2.224;2023-07-13T07:28:53;100992.01;;;17.56;67.71
46682;BME280;34101;53.430;-2.224;2023-07-13T07:31:21;100988.26;;;17.90;67.84
46682;BME280;34101;53.430;-2.224;2023-07-13T07:33:48;100995.14;;;18.18;67.13
46682;BME280;34101;53.430;-2.224;2023-07-13T07:36:16;100993.07;;;18.18;66.50
46682;BME280;34101;53.430;-2.224;2023-07-13T07:38:44;100997.11;;;17.91;66.26
46682;BME280;34101;53.430;-2.224;2023-07-13T07:41:12;100997.68;;;17.91;66.71
46682;BME280;34101;53.430;-2.224;2023-07-13T07:43:40;100997.33;;;18.36;65.32
46682;BME280;34101;53.430;-2.224;2023-07-13T07:46:07;100996.47;;;18.08;65.73
46682;BME280;34101;53.430;-2.224;2023-07-13T07:48:34;100995.33;;;17.98;67.07
46682;BME280;34101;53.430;-2.224;2023-07-13T07:51:02;100994.77;;;18.52;65.44
46682;BME280;34101;53.430;-2.224;2023-07-13T07:53:29;100996.53;;;18.71;63.52
46682;BME280;34101;53.430;-2.224;2023-07-13T07:55:57;101002.05;;;18.77;63.24
46682;BME280;34101;53.430;-2.224;2023-07-13T07:58:24;101010.65;;;18.57;63.02
46682;BME280;34101;53.430;-2.224;2023-07-13T08:00:52;101010.94;;;18.45;62.43
46682;BME280;34101;53.430;-2.224;2023-07-13T08:03:20;101011.86;;;18.13;61.37
46682;BME280;34101;53.430;-2.224;2023-07-13T08:05:47;101013.96;;;18.43;60.77
46682;BME280;34101;53.430;-2.224;2023-07-13T08:08:15;101012.79;;;18.89;60.22
46682;BME280;34101;53.430;-2.224;2023-07-13T08:10:42;101018.24;;;18.95;60.52
46682;BME280;34101;53.430;-2.224;2023-07-13T08:13:09;101014.51;;;19.35;59.59
46682;BME280;34101;53.430;-2.224;2023-07-13T08:15:38;101018.23;;;18.69;60.59
46682;BME280;34101;53.430;-2.224;2023-07-13T08:18:06;101006.69;;;19.62;57.87
46682;BME280;34101;53.430;-2.224;2023-07-13T08:20:37;101006.07;;;19.37;57.73
46682;BME280;34101;53.430;-2.224;2023-07-13T08:23:04;101007.75;;;19.62;57.18
46682;BME280;34101;53.430;-2.224;2023-07-13T08:25:32;101013.86;;;18.77;58.36
46682;BME280;34101;53.430;-2.224;2023-07-13T08:27:59;101019.59;;;18.01;61.55
46682;BME280;34101;53.430;-2.224;2023-07-13T08:30:27;101013.39;;;18.79;59.98
46682;BME280;34101;53.430;-2.224;2023-07-13T08:32:54;101010.59;;;19.16;59.22
46682;BME280;34101;53.430;-2.224;2023-07-13T08:35:21;101012.42;;;19.45;59.92
46682;BME280;34101;53.430;-2.224;2023-07-13T08:37:49;101013.19;;;19.67;58.06
46682;BME280;34101;53.430;-2.224;2023-07-13T08:40:17;101013.93;;;19.52;55.48
46682;BME280;34101;53.430;-2.224;2023-07-13T08:42:53;101012.54;;;20.83;53.60
46682;BME280;34101;53.430;-2.224;2023-07-13T08:45:23;101009.19;;;21.99;51.10
46682;BME280;34101;53.430;-2.224;2023-07-13T08:47:57;101012.24;;;22.60;48.71
46682;BME280;34101;53.430;-2.224;2023-07-13T08:50:31;101005.40;;;23.59;46.07
46682;BME280;34101;53.430;-2.224;2023-07-13T08:53:03;100998.14;;;23.83;44.22
46682;BME280;34101;53.430;-2.224;2023-07-13T08:55:34;101001.66;;;24.87;42.96
46682;BME280;34101;53.430;-2.224;2023-07-13T08:58:09;101008.86;;;23.41;42.58
46682;BME280;34101;53.430;-2.224;2023-07-13T09:00:44;101012.22;;;23.40;42.18
46682;BME280;34101;53.430;-2.224;2023-07-13T09:03:22;101011.02;;;22.94;42.54
46682;BME280;34101;53.430;-2.224;2023-07-13T09:05:54;101014.41;;;23.73;42.63
46682;BME280;34101;53.430;-2.224;2023-07-13T09:08:37;101013.10;;;23.73;42.05
46682;BME280;34101;53.430;-2.224;2023-07-13T09:11:19;101013.83;;;23.30;42.26
46682;BME280;34101;53.430;-2.224;2023-07-13T09:13:56;101015.88;;;23.57;41.87
46682;BME280;34101;53.430;-2.224;2023-07-13T09:16:26;101015.09;;;23.25;41.86
46682;BME280;34101;53.430;-2.224;2023-07-13T09:18:58;101019.50;;;22.71;42.72
46682;BME280;34101;53.430;-2.224;2023-07-13T09:21:32;101024.55;;;21.73;46.09
46682;BME280;34101;53.430;-2.224;2023-07-13T09:24:03;101025.48;;;21.74;46.00
46682;BME280;34101;53.430;-2.224;2023-07-13T09:26:33;101024.02;;;21.04;48.15
46682;BME280;34101;53.430;-2.224;2023-07-13T09:29:10;101026.72;;;20.94;48.71
46682;BME280;34101;53.430;-2.224;2023-07-13T09:31:44;101032.80;;;20.58;49.57
46682;BME280;34101;53.430;-2.224;2023-07-13T09:34:14;101027.04;;;21.17;48.57
46682;BME280;34101;53.430;-2.224;2023-07-13T09:36:41;101025.96;;;21.64;48.97
46682;BME280;34101;53.430;-2.224;2023-07-13T09:39:12;101027.94;;;22.22;46.88
46682;BME280;34101;53.430;-2.224;2023-07-13T09:41:45;101026.47;;;22.75;46.86
46682;BME280;34101;53.430;-2.224;2023-07-13T09:44:16;101024.80;;;22.40;46.45
46682;BME280;34101;53.430;-2.224;2023-07-13T09:46:46;101027.80;;;22.09;47.15
46682;BME280;34101;53.430;-2.224;2023-07-13T09:49:14;101031.76;;;22.40;45.69
46682;BME280;34101;53.430;-2.224;2023-07-13T09:51:42;101032.28;;;21.92;46.97
46682;BME280;34101;53.430;-2.224;2023-07-13T09:54:20;101035.08;;;22.14;46.50
46682;BME280;34101;53.430;-2.224;2023-07-13T09:56:47;101037.54;;;22.21;46.26
46682;BME280;34101;53.430;-2.224;2023-07-13T09:59:24;101034.34;;;22.09;46.60
46682;BME280;34101;53.430;-2.224;2023-07-13T10:01:51;101036.06;;;22.75;46.16
46682;BME280;34101;53.430;-2.224;2023-07-13T10:04:22;101034.32;;;23.51;44.70
46682;BME280;34101;53.430;-2.224;2023-07-13T10:07:05;101034.03;;;23.94;42.77
46682;BME280;34101;53.430;-2.224;2023-07-13T10:09:33;101033.22;;;24.56;41.37
46682;BME280;34101;53.430;-2.224;2023-07-13T10:12:00;101035.14;;;24.63;40.30
46682;BME280;34101;53.430;-2.224;2023-07-13T10:14:29;101038.06;;;24.12;41.02
46682;BME280;34101;53.430;-2.224;2023-07-13T10:17:00;101045.76;;;23.53;40.82
46682;BME280;34101;53.430;-2.224;2023-07-13T10:19:32;101051.32;;;21.74;44.28
46682;BME280;34101;53.430;-2.224;2023-07-13T10:22:15;101053.19;;;22.57;43.72
46682;BME280;34101;53.430;-2.224;2023-07-13T10:24:47;101052.58;;;21.94;45.36
46682;BME280;34101;53.430;-2.224;2023-07-13T10:27:17;101053.02;;;22.63;45.66
46682;BME280;34101;53.430;-2.224;2023-07-13T10:29:47;101051.89;;;21.79;46.04
46682;BME280;34101;53.430;-2.224;2023-07-13T10:32:16;101056.27;;;21.89;46.99
46682;BME280;34101;53.430;-2.224;2023-07-13T10:34:47;101052.91;;;21.75;46.29
46682;BME280;34101;53.430;-2.224;2023-07-13T10:37:18;101047.44;;;22.22;45.81
46682;BME280;34101;53.430;-2.224;2023-07-13T10:39:47;101048.37;;;23.05;45.26
46682;BME280;34101;53.430;-2.224;2023-07-13T10:42:23;101050.62;;;23.35;44.96
46682;BME280;34101;53.430;-2.224;2023-07-13T10:44:52;101047.36;;;23.66;43.44
46682;BME280;34101;53.430;-2.224;2023-07-13T10:47:20;101045.23;;;24.03;42.65
46682;BME280;34101;53.430;-2.224;2023-07-13T10:49:50;101035.52;;;24.63;41.62
46682;BME280;34101;53.430;-2.224;2023-07-13T10:52:55;101034.13;;;25.29;40.31
46682;BME280;34101;53.430;-2.224;2023-07-13T10:55:41;101029.06;;;25.98;38.93
46682;BME280;34101;53.430;-2.224;2023-07-13T10:58:23;101037.20;;;24.75;38.27
46682;BME280;34101;53.430;-2.224;2023-07-13T11:01:03;101037.64;;;24.27;38.26
46682;BME280;34101;53.430;-2.224;2023-07-13T11:03:32;101039.10;;;24.41;38.38
46682;BME280;34101;53.430;-2.224;2023-07-13T11:06:17;101044.04;;;24.12;39.28
46682;BME280;34101;53.430;-2.224;2023-07-13T11:08:57;101043.12;;;25.02;37.57
46682;BME280;34101;53.430;-2.224;2023-07-13T11:11:36;101043.49;;;25.97;36.89
46682;BME280;34101;53.430;-2.224;2023-07-13T11:14:05;101041.09;;;25.94;37.10
46682;BME280;34101;53.430;-2.224;2023-07-13T11:16:53;101040.13;;;25.21;36.68
46682;BME280;34101;53.430;-2.224;2023-07-13T11:19:41;101036.49;;;26.04;36.83
46682;BME280;34101;53.430;-2.224;2023-07-13T11:22:16;101035.32;;;26.32;35.42
46682;BME280;34101;53.430;-2.224;2023-07-13T11:24:51;101037.52;;;25.65;35.24
46682;BME280;34101;53.430;-2.224;2023-07-13T11:27:34;101039.29;;;25.46;36.08
46682;BME280;34101;53.430;-2.224;2023-07-13T11:30:30;101044.91;;;25.01;36.63
46682;BME280;34101;53.430;-2.224;2023-07-13T11:33:09;101038.75;;;25.07;37.71
46682;BME280;34101;53.430;-2.224;2023-07-13T11:35:44;101034.87;;;25.38;36.67
46682;BME280;34101;53.430;-2.224;2023-07-13T11:38:15;101033.48;;;24.84;37.50
46682;BME280;34101;53.430;-2.224;2023-07-13T11:40:46;101035.59;;;24.49;37.76
46682;BME280;34101;53.430;-2.224;2023-07-13T11:43:15;101036.37;;;24.31;37.49
46682;BME280;34101;53.430;-2.224;2023-07-13T11:45:43;101035.29;;;23.78;38.82
46682;BME280;34101;53.430;-2.224;2023-07-13T11:48:21;101031.43;;;24.13;38.98
46682;BME280;34101;53.430;-2.224;2023-07-13T11:50:53;101028.10;;;24.14;39.97
46682;BME280;34101;53.430;-2.224;2023-07-13T11:53:24;101027.25;;;23.58;39.73
46682;BME280;34101;53.430;-2.224;2023-07-13T11:55:53;101018.37;;;23.98;39.75
46682;BME280;34101;53.430;-2.224;2023-07-13T11:58:24;101017.43;;;23.86;41.26
46682;BME280;34101;53.430;-2.224;2023-07-13T12:00:53;101018.73;;;23.42;42.35
46682;BME280;34101;53.430;-2.224;2023-07-13T12:03:24;101021.55;;;23.26;41.09
46682;BME280;34101;53.430;-2.224;2023-07-13T12:05:58;101018.98;;;23.51;40.51
46682;BME280;34101;53.430;-2.224;2023-07-13T12:08:26;101015.79;;;23.40;40.09
46682;BME280;34101;53.430;-2.224;2023-07-13T12:10:59;101013.30;;;23.97;40.02
46682;BME280;34101;53.430;-2.224;2023-07-13T12:13:27;101010.70;;;24.58;39.24
46682;BME280;34101;53.430;-2.224;2023-07-13T12:15:56;101013.08;;;24.06;39.49
46682;BME280;34101;53.430;-2.224;2023-07-13T12:18:32;101007.22;;;24.03;39.91
46682;BME280;34101;53.430;-2.224;2023-07-13T12:20:59;101011.00;;;23.33;40.72
46682;BME280;34101;53.430;-2.224;2023-07-13T12:23:30;101003.33;;;24.48;37.85
46682;BME280;34101;53.430;-2.224;2023-07-13T12:25:59;101003.98;;;24.31;39.49
46682;BME280;34101;53.430;-2.224;2023-07-13T12:28:33;101005.93;;;23.14;41.31
46682;BME280;34101;53.430;-2.224;2023-07-13T12:31:06;101005.00;;;22.29;42.80
46682;BME280;34101;53.430;-2.224;2023-07-13T12:33:34;101003.90;;;23.13;42.19
46682;BME280;34101;53.430;-2.224;2023-07-13T12:36:03;100999.63;;;23.79;41.51
46682;BME280;34101;53.430;-2.224;2023-07-13T12:38:32;100991.68;;;24.12;40.66
46682;BME280;34101;53.430;-2.224;2023-07-13T12:41:01;100992.82;;;24.39;41.41
46682;BME280;34101;53.430;-2.224;2023-07-13T12:43:34;100990.87;;;24.24;40.89
46682;BME280;34101;53.430;-2.224;2023-07-13T12:46:13;100991.13;;;24.70;38.85
46682;BME280;34101;53.430;-2.224;2023-07-13T12:48:44;100986.72;;;24.19;39.91
46682;BME280;34101;53.430;-2.224;2023-07-13T12:51:15;100992.26;;;23.22;41.80
46682;BME280;34101;53.430;-2.224;2023-07-13T12:53:48;100990.05;;;23.49;42.72